createdAt,value
2018-12-15T00:00:35.984Z,10.30
2018-12-15T00:03:12.139Z,10.20
2018-12-15T00:05:44.290Z,9.80
2018-12-15T00:08:16.335Z,11.27
2018-12-15T00:10:52.530Z,10.17
2018-12-15T00:13:25.168Z,11.83
2018-12-15T00:15:57.082Z,10.50
2018-12-15T00:18:29.181Z,13.10
2018-12-15T00:20:59.509Z,12.17
2018-12-15T00:23:29.172Z,15.03
2018-12-15T00:26:01.259Z,12.10
2018-12-15T00:28:33.632Z,12.23
2018-12-15T00:31:02.758Z,11.07
2018-12-15T00:33:33.505Z,10.60
2018-12-15T00:36:10.110Z,10.70
2018-12-15T00:38:42.569Z,10.77
2018-12-15T00:41:11.637Z,11.03
2018-12-15T00:43:42.059Z,11.17
2018-12-15T00:46:19.011Z,9.60
2018-12-15T00:48:49.464Z,10.80
2018-12-15T00:51:26.222Z,11.63
2018-12-15T00:54:02.460Z,10.33
2018-12-15T00:56:34.649Z,9.43
2018-12-15T00:59:06.800Z,9.70
2018-12-15T01:01:39.101Z,10.30
2018-12-15T01:04:11.438Z,10.40
2018-12-15T01:06:43.643Z,9.87
2018-12-15T01:09:15.869Z,9.97
2018-12-15T01:11:48.159Z,10.67
2018-12-15T01:14:20.307Z,10.07
2018-12-15T01:16:52.599Z,10.67
2018-12-15T01:19:28.835Z,10.13
2018-12-15T01:21:58.882Z,10.37
2018-12-15T01:24:29.030Z,10.90
2018-12-15T01:27:01.194Z,9.63
2018-12-15T01:29:33.061Z,8.30
2018-12-15T01:32:05.308Z,11.27
2018-12-15T01:34:37.292Z,10.33
2018-12-15T01:37:09.253Z,10.10
2018-12-15T01:39:38.489Z,11.43
2018-12-15T01:42:10.481Z,9.30
2018-12-15T01:44:42.703Z,9.97
2018-12-15T01:47:14.744Z,9.07
2018-12-15T01:49:51.669Z,10.13
2018-12-15T01:52:23.775Z,9.60
2018-12-15T01:54:56.071Z,10.03
2018-12-15T01:57:32.029Z,9.67
2018-12-15T02:00:04.588Z,9.90
2018-12-15T02:02:36.283Z,10.10
2018-12-15T02:05:05.730Z,9.10
2018-12-15T02:07:37.813Z,9.20
2018-12-15T02:10:09.814Z,9.97
2018-12-15T02:12:45.957Z,10.40
2018-12-15T02:15:18.250Z,9.43
2018-12-15T02:17:50.363Z,9.57
2018-12-15T02:20:27.704Z,10.20
2018-12-15T02:22:56.956Z,9.67
2018-12-15T02:25:29.352Z,9.70
2018-12-15T02:27:59.779Z,9.57
2018-12-15T02:30:32.064Z,9.50
2018-12-15T02:33:01.266Z,8.97
2018-12-15T02:35:31.643Z,8.57
2018-12-15T02:38:02.084Z,9.40
2018-12-15T02:40:32.552Z,10.57
2018-12-15T02:43:02.980Z,9.63
2018-12-15T02:45:35.015Z,10.03
2018-12-15T02:48:04.464Z,10.67
2018-12-15T02:50:36.582Z,9.97
2018-12-15T02:53:08.693Z,10.97
2018-12-15T02:55:40.749Z,9.27
2018-12-15T02:58:13.073Z,11.53
2018-12-15T03:00:45.163Z,10.67
2018-12-15T03:03:14.328Z,10.33
2018-12-15T03:05:44.745Z,9.03
2018-12-15T03:08:16.896Z,9.47
2018-12-15T03:10:49.091Z,8.87
2018-12-15T03:13:25.601Z,11.27
2018-12-15T03:16:02.678Z,10.13
2018-12-15T03:18:34.912Z,11.07
2018-12-15T03:21:06.894Z,11.00
2018-12-15T03:23:38.838Z,11.67
2018-12-15T03:26:11.106Z,11.83
2018-12-15T03:28:47.081Z,11.33
2018-12-15T03:31:19.140Z,11.10
2018-12-15T03:33:58.483Z,10.17
2018-12-15T03:36:28.796Z,10.50
2018-12-15T03:39:05.607Z,10.57
2018-12-15T03:41:37.352Z,9.00
2018-12-15T03:44:13.674Z,10.47
2018-12-15T03:46:46.419Z,10.03
2018-12-15T03:49:17.993Z,11.17
2018-12-15T03:51:50.121Z,11.10
2018-12-15T03:54:22.171Z,9.50
2018-12-15T03:56:54.338Z,9.80
2018-12-15T03:59:26.441Z,10.40
2018-12-15T04:01:59.011Z,10.60
2018-12-15T04:04:30.391Z,10.73
2018-12-15T04:07:02.812Z,10.60
2018-12-15T04:09:39.306Z,11.53
2018-12-15T04:12:11.650Z,9.77
2018-12-15T04:14:43.800Z,11.73
2018-12-15T04:17:15.964Z,11.50
2018-12-15T04:19:48.206Z,11.37
2018-12-15T04:22:19.350Z,11.30
2018-12-15T04:24:55.939Z,9.70
2018-12-15T04:27:32.025Z,10.60
2018-12-15T04:30:02.278Z,12.00
2018-12-15T04:32:34.816Z,11.57
2018-12-15T04:35:11.004Z,12.00
2018-12-15T04:37:43.079Z,11.00
2018-12-15T04:40:19.739Z,12.27
2018-12-15T04:42:51.741Z,10.43
2018-12-15T04:45:23.613Z,10.83
2018-12-15T04:47:53.903Z,11.13
2018-12-15T04:50:25.970Z,12.07
2018-12-15T04:52:58.015Z,10.10
2018-12-15T04:55:30.352Z,11.97
2018-12-15T04:58:00.318Z,11.43
2018-12-15T05:00:32.989Z,9.57
2018-12-15T05:03:05.188Z,12.13
2018-12-15T05:05:37.303Z,12.67
2018-12-15T05:08:06.530Z,11.10
2018-12-15T05:10:38.689Z,11.60
2018-12-15T05:13:10.755Z,11.27
2018-12-15T05:15:41.158Z,10.87
2018-12-15T05:18:10.391Z,10.93
2018-12-15T05:20:41.962Z,12.27
2018-12-15T05:23:14.103Z,11.57
2018-12-15T05:25:46.096Z,11.80
2018-12-15T05:28:18.119Z,12.37
2018-12-15T05:30:50.431Z,11.27
2018-12-15T05:33:22.390Z,10.77
2018-12-15T05:35:54.531Z,11.03
2018-12-15T05:38:26.800Z,10.57
2018-12-15T05:40:59.142Z,12.80
2018-12-15T05:43:29.527Z,11.50
2018-12-15T05:45:59.295Z,12.10
2018-12-15T05:48:35.664Z,10.93
2018-12-15T05:51:07.975Z,11.47
2018-12-15T05:53:40.582Z,11.10
2018-12-15T05:56:16.502Z,14.27
2018-12-15T05:58:48.741Z,12.40
2018-12-15T06:01:21.220Z,12.90
2018-12-15T06:03:52.751Z,11.43
2018-12-15T06:06:28.980Z,12.07
2018-12-15T06:09:01.311Z,13.23
2018-12-15T06:11:33.648Z,12.27
2018-12-15T06:14:05.787Z,11.93
2018-12-15T06:16:36.224Z,13.37
2018-12-15T06:19:13.416Z,11.30
2018-12-15T06:21:46.115Z,13.00
2018-12-15T06:24:17.672Z,12.20
2018-12-15T06:26:47.888Z,11.77
2018-12-15T06:29:19.869Z,12.37
2018-12-15T06:31:51.995Z,13.27
2018-12-15T06:34:33.477Z,11.67
2018-12-15T06:37:05.290Z,12.73
2018-12-15T06:39:37.174Z,12.90
2018-12-15T06:42:13.030Z,12.53
2018-12-15T06:44:43.804Z,12.33
2018-12-15T06:47:15.753Z,12.77
2018-12-15T06:49:47.797Z,15.13
2018-12-15T06:52:17.158Z,13.37
2018-12-15T06:54:49.316Z,13.70
2018-12-15T06:57:21.537Z,12.37
2018-12-15T06:59:53.434Z,12.33
2018-12-15T07:02:30.088Z,12.60
2018-12-15T07:05:02.242Z,13.03
2018-12-15T07:07:35.392Z,11.97
2018-12-15T07:10:12.581Z,13.87
2018-12-15T07:12:44.633Z,11.97
2018-12-15T07:15:16.728Z,12.57
2018-12-15T07:17:49.123Z,12.97
2018-12-15T07:20:25.010Z,12.83
2018-12-15T07:22:57.270Z,14.13
2018-12-15T07:25:33.728Z,12.13
2018-12-15T07:28:06.641Z,12.77
2018-12-15T07:30:44.159Z,12.37
2018-12-15T07:33:20.195Z,11.80
2018-12-15T07:35:51.884Z,12.53
2018-12-15T07:38:28.015Z,13.10
2018-12-15T07:41:00.210Z,12.47
2018-12-15T07:43:36.483Z,12.33
2018-12-15T07:46:08.490Z,12.10
2018-12-15T07:48:51.349Z,12.67
2018-12-15T07:51:19.635Z,13.47
2018-12-15T07:53:56.608Z,12.53
2018-12-15T07:56:34.053Z,14.27
2018-12-15T07:59:05.623Z,13.47
2018-12-15T08:01:42.268Z,13.10
2018-12-15T08:04:14.197Z,14.17
2018-12-15T08:06:50.360Z,12.87
2018-12-15T08:09:20.757Z,13.23
2018-12-15T08:11:58.456Z,13.47
2018-12-15T08:14:37.158Z,14.03
2018-12-15T08:17:14.388Z,14.63
2018-12-15T08:19:46.573Z,13.23
2018-12-15T08:22:18.819Z,14.87
2018-12-15T08:24:51.029Z,14.87
2018-12-15T08:27:23.339Z,13.57
2018-12-15T08:29:59.570Z,14.80
2018-12-15T08:32:31.939Z,13.53
2018-12-15T08:35:04.099Z,13.90
2018-12-15T08:37:36.208Z,14.10
2018-12-15T08:40:08.551Z,13.47
2018-12-15T08:42:40.425Z,14.43
2018-12-15T08:45:16.426Z,14.97
2018-12-15T08:47:48.282Z,14.03
2018-12-15T08:50:20.621Z,12.87
2018-12-15T08:52:56.749Z,12.40
2018-12-15T08:55:33.209Z,13.60
2018-12-15T08:58:03.743Z,14.17
2018-12-15T09:00:35.295Z,12.33
2018-12-15T09:03:05.977Z,14.47
2018-12-15T09:05:43.223Z,14.63
2018-12-15T09:08:13.648Z,13.23
2018-12-15T09:10:46.173Z,13.73
2018-12-15T09:13:18.000Z,12.93
2018-12-15T09:15:54.077Z,13.70
2018-12-15T09:18:30.753Z,13.83
2018-12-15T09:21:06.875Z,13.73
2018-12-15T09:23:43.249Z,15.20
2018-12-15T09:26:19.517Z,14.47
2018-12-15T09:28:49.309Z,15.00
2018-12-15T09:31:27.314Z,13.83
2018-12-15T09:33:59.313Z,13.23
2018-12-15T09:36:31.770Z,13.87
2018-12-15T09:39:08.967Z,12.90
2018-12-15T09:41:41.392Z,13.30
2018-12-15T09:44:13.351Z,14.77
2018-12-15T09:46:50.485Z,14.67
2018-12-15T09:49:23.219Z,14.37
2018-12-15T09:51:56.394Z,13.60
2018-12-15T09:54:33.503Z,15.47
2018-12-15T09:57:10.915Z,13.23
2018-12-15T09:59:47.853Z,13.83
2018-12-15T10:02:24.106Z,14.00
2018-12-15T10:05:00.564Z,14.33
2018-12-15T10:07:37.174Z,13.93
2018-12-15T10:10:07.253Z,14.07
2018-12-15T10:12:39.001Z,15.57
2018-12-15T10:15:11.297Z,13.83
2018-12-15T10:17:52.948Z,14.17
2018-12-15T10:20:24.590Z,14.60
2018-12-15T10:22:56.816Z,13.57
2018-12-15T10:25:29.111Z,13.77
2018-12-15T10:28:00.928Z,14.90
2018-12-15T10:30:38.349Z,16.33
2018-12-15T10:33:13.218Z,16.27
2018-12-15T10:35:47.659Z,14.53
2018-12-15T10:38:19.778Z,14.77
2018-12-15T10:40:55.973Z,15.90
2018-12-15T10:43:32.212Z,12.67
2018-12-15T10:46:04.438Z,15.27
2018-12-15T10:48:36.704Z,14.17
2018-12-15T10:51:09.088Z,14.17
2018-12-15T10:53:41.426Z,15.97
2018-12-15T10:56:13.522Z,15.37
2018-12-15T10:58:45.623Z,17.30
2018-12-15T11:01:22.379Z,15.33
2018-12-15T11:03:52.869Z,16.13
2018-12-15T11:06:29.346Z,15.73
2018-12-15T11:08:59.711Z,15.57
2018-12-15T11:11:29.752Z,14.23
2018-12-15T11:14:02.044Z,16.13
2018-12-15T11:16:38.378Z,16.17
2018-12-15T11:19:10.780Z,16.97
2018-12-15T11:21:46.799Z,16.27
2018-12-15T11:24:19.059Z,15.10
2018-12-15T11:26:51.057Z,15.43
2018-12-15T11:29:23.251Z,13.80
2018-12-15T11:31:53.067Z,15.43
2018-12-15T11:34:29.087Z,13.37
2018-12-15T11:37:01.382Z,14.73
2018-12-15T11:39:33.682Z,14.70
2018-12-15T11:42:07.756Z,16.03
2018-12-15T11:44:42.274Z,14.70
2018-12-15T11:47:13.346Z,13.83
2018-12-15T11:49:45.461Z,15.27
2018-12-15T11:52:17.857Z,15.20
2018-12-15T11:54:50.193Z,14.23
2018-12-15T11:57:21.859Z,14.80
2018-12-15T11:59:58.878Z,14.47
2018-12-15T12:02:31.965Z,13.30
2018-12-15T12:05:05.434Z,14.70
2018-12-15T12:07:42.013Z,13.53
2018-12-15T12:10:13.944Z,13.93
2018-12-15T12:12:46.042Z,12.90
2018-12-15T12:15:18.431Z,15.03
2018-12-15T12:17:50.668Z,12.67
2018-12-15T12:20:20.931Z,13.97
2018-12-15T12:22:53.400Z,13.07
2018-12-15T12:25:29.296Z,12.33
2018-12-15T12:28:01.591Z,11.67
2018-12-15T12:30:33.630Z,13.33
2018-12-15T12:33:06.004Z,11.90
2018-12-15T12:35:43.840Z,12.93
2018-12-15T12:38:16.970Z,13.30
2018-12-15T12:40:49.636Z,12.23
2018-12-15T12:43:25.533Z,12.73
2018-12-15T12:46:01.892Z,11.40
2018-12-15T12:48:39.022Z,13.30
2018-12-15T12:51:11.065Z,11.20
2018-12-15T12:53:43.276Z,13.60
2018-12-15T12:56:15.216Z,12.27
2018-12-15T12:58:48.089Z,12.93
2018-12-15T13:01:19.703Z,12.53
2018-12-15T13:03:52.004Z,13.17
2018-12-15T13:06:28.701Z,12.87
2018-12-15T13:09:06.461Z,11.90
2018-12-15T13:11:38.822Z,12.73
2018-12-15T13:14:14.701Z,11.80
2018-12-15T13:16:53.807Z,13.20
2018-12-15T13:19:26.194Z,12.80
2018-12-15T13:21:58.495Z,12.50
2018-12-15T13:24:31.233Z,11.10
2018-12-15T13:27:03.661Z,13.03
2018-12-15T13:29:39.756Z,13.10
2018-12-15T13:32:12.611Z,12.50
2018-12-15T13:34:44.979Z,10.97
2018-12-15T13:37:14.961Z,13.30
2018-12-15T13:39:44.162Z,11.93
2018-12-15T13:42:23.684Z,12.70
2018-12-15T13:44:55.708Z,10.87
2018-12-15T13:47:25.222Z,12.37
2018-12-15T13:49:57.801Z,11.67
2018-12-15T13:52:30.467Z,12.00
2018-12-15T13:55:00.961Z,11.43
2018-12-15T13:57:31.524Z,11.77
2018-12-15T14:00:07.913Z,12.27
2018-12-15T14:02:40.869Z,11.27
2018-12-15T14:05:11.378Z,12.43
2018-12-15T14:07:41.680Z,11.67
2018-12-15T14:10:14.094Z,11.90
2018-12-15T14:12:46.736Z,12.47
2018-12-15T14:15:18.644Z,12.37
2018-12-15T14:17:49.519Z,12.77
2018-12-15T14:20:20.063Z,11.53
2018-12-15T14:22:49.379Z,11.23
2018-12-15T14:25:21.694Z,13.73
2018-12-15T14:27:58.957Z,13.43
2018-12-15T14:30:29.282Z,12.47
2018-12-15T14:33:05.632Z,11.43
2018-12-15T14:35:43.207Z,12.37
2018-12-15T14:38:15.223Z,10.70
2018-12-15T14:40:47.333Z,12.30
2018-12-15T14:43:19.166Z,11.90
2018-12-15T14:45:51.358Z,13.00
2018-12-15T14:48:21.548Z,12.17
2018-12-15T14:50:53.651Z,9.47
2018-12-15T14:53:25.560Z,12.83
2018-12-15T14:55:57.759Z,13.77
2018-12-15T14:58:29.704Z,12.70
2018-12-15T15:01:01.818Z,10.47
2018-12-15T15:03:39.052Z,11.50
2018-12-15T15:06:09.994Z,10.77
2018-12-15T15:08:42.445Z,11.43
2018-12-15T15:11:19.624Z,11.90
2018-12-15T15:13:52.205Z,12.03
2018-12-15T15:16:24.367Z,12.63
2018-12-15T15:18:56.774Z,12.37
2018-12-15T15:21:29.212Z,12.00
2018-12-15T15:24:01.513Z,11.30
2018-12-15T15:26:35.281Z,11.33
2018-12-15T15:29:04.615Z,11.40
2018-12-15T15:31:37.067Z,11.70
2018-12-15T15:34:13.803Z,12.50
2018-12-15T15:36:45.637Z,12.50
2018-12-15T15:39:22.392Z,12.07
2018-12-15T15:41:58.792Z,12.33
2018-12-15T15:44:35.942Z,11.30
2018-12-15T15:47:07.994Z,9.47
2018-12-15T15:49:39.897Z,9.83
2018-12-15T15:52:16.092Z,9.30
2018-12-15T15:54:48.174Z,12.03
2018-12-15T15:57:20.160Z,13.03
2018-12-15T15:59:56.459Z,12.67
2018-12-15T16:02:26.042Z,12.23
2018-12-15T16:04:58.713Z,13.40
2018-12-15T16:07:30.402Z,11.17
2018-12-15T16:10:00.892Z,12.30
2018-12-15T16:12:31.815Z,11.67
2018-12-15T16:15:04.608Z,11.20
2018-12-15T16:17:33.886Z,11.40
2018-12-15T16:20:07.300Z,11.07
2018-12-15T16:22:39.172Z,13.67
2018-12-15T16:25:11.555Z,11.93
2018-12-15T16:27:43.874Z,10.93
2018-12-15T16:30:15.949Z,12.50
2018-12-15T16:32:48.092Z,12.03
2018-12-15T16:35:17.333Z,12.57
2018-12-15T16:37:49.590Z,12.70
2018-12-15T16:40:21.618Z,12.77
2018-12-15T16:42:54.011Z,11.73
2018-12-15T16:45:26.058Z,11.43
2018-12-15T16:47:58.225Z,12.47
2018-12-15T16:50:31.390Z,8.73
2018-12-15T16:53:03.555Z,12.63
2018-12-15T16:55:33.700Z,11.67
2018-12-15T16:58:03.876Z,9.93
2018-12-15T17:00:35.716Z,10.17
2018-12-15T17:03:11.830Z,9.73
2018-12-15T17:05:46.144Z,10.53
2018-12-15T17:08:18.214Z,11.27
2018-12-15T17:10:48.323Z,12.37
2018-12-15T17:13:24.804Z,8.47
2018-12-15T17:15:55.212Z,10.37
2018-12-15T17:18:25.644Z,11.07
2018-12-15T17:20:57.714Z,10.10
2018-12-15T17:23:28.625Z,11.37
2018-12-15T17:26:00.718Z,10.67
2018-12-15T17:28:32.734Z,11.80
2018-12-15T17:31:05.149Z,12.17
2018-12-15T17:33:37.019Z,9.10
2018-12-15T17:36:09.324Z,10.40
2018-12-15T17:38:46.204Z,10.43
2018-12-15T17:41:23.028Z,11.43
2018-12-15T17:43:55.331Z,11.80
2018-12-15T17:46:27.704Z,8.40
2018-12-15T17:48:59.733Z,11.60
2018-12-15T17:51:36.080Z,10.63
2018-12-15T17:54:08.856Z,9.93
2018-12-15T17:56:45.764Z,11.30
2018-12-15T17:59:18.239Z,10.17
2018-12-15T18:01:51.089Z,10.90
2018-12-15T18:04:23.309Z,9.47
2018-12-15T18:06:59.521Z,10.63
2018-12-15T18:09:31.680Z,10.57
2018-12-15T18:12:08.744Z,10.10
2018-12-15T18:14:44.492Z,10.23
2018-12-15T18:17:16.578Z,10.37
2018-12-15T18:19:48.842Z,8.70
2018-12-15T18:22:18.575Z,10.30
2018-12-15T18:24:50.756Z,10.67
2018-12-15T18:27:19.939Z,10.07
2018-12-15T18:29:52.154Z,9.87
2018-12-15T18:32:28.656Z,10.03
2018-12-15T18:34:59.360Z,10.27
2018-12-15T18:37:31.246Z,10.93
2018-12-15T18:40:04.177Z,9.97
2018-12-15T18:42:39.849Z,10.00
2018-12-15T18:45:11.713Z,10.07
2018-12-15T18:47:44.067Z,10.00
2018-12-15T18:50:15.941Z,9.27
2018-12-15T18:52:48.064Z,9.50
2018-12-15T18:55:17.931Z,9.93
2018-12-15T18:57:48.308Z,9.20
2018-12-15T19:00:20.089Z,9.93
2018-12-15T19:02:55.993Z,9.70
2018-12-15T19:05:32.512Z,9.97
2018-12-15T19:08:08.713Z,9.80
2018-12-15T19:10:40.698Z,9.10
2018-12-15T19:13:16.910Z,10.27
2018-12-15T19:15:48.998Z,10.37
2018-12-15T19:18:21.126Z,9.87
2018-12-15T19:20:57.314Z,10.37
2018-12-15T19:23:33.022Z,10.13
2018-12-15T19:26:05.441Z,9.70
2018-12-15T19:28:37.450Z,10.87
2018-12-15T19:31:10.239Z,10.37
2018-12-15T19:33:40.994Z,8.43
2018-12-15T19:36:17.101Z,8.77
2018-12-15T19:38:53.346Z,10.80
2018-12-15T19:41:26.532Z,8.63
2018-12-15T19:43:58.731Z,10.23
2018-12-15T19:46:29.088Z,11.87
2018-12-15T19:49:01.137Z,10.10
2018-12-15T19:51:33.496Z,10.43
2018-12-15T19:54:04.107Z,8.90
2018-12-15T19:56:36.053Z,10.70
2018-12-15T19:59:05.491Z,11.10
2018-12-15T20:01:35.533Z,10.67
2018-12-15T20:04:07.626Z,9.47
2018-12-15T20:06:38.101Z,9.97
2018-12-15T20:09:10.454Z,10.90
2018-12-15T20:11:42.418Z,10.37
2018-12-15T20:14:14.093Z,10.93
2018-12-15T20:16:46.392Z,10.40
2018-12-15T20:19:18.514Z,8.63
2018-12-15T20:21:47.782Z,10.50
2018-12-15T20:24:19.464Z,11.77
2018-12-15T20:26:51.649Z,9.93
2018-12-15T20:29:23.920Z,11.63
2018-12-15T20:31:56.095Z,9.67
2018-12-15T20:34:32.556Z,9.93
2018-12-15T20:37:04.382Z,9.73
2018-12-15T20:39:35.072Z,9.50
2018-12-15T20:42:07.448Z,11.00
2018-12-15T20:44:41.856Z,9.30
2018-12-15T20:50:51.372Z,10.60
2018-12-15T20:53:29.215Z,9.23
2018-12-15T20:56:11.209Z,9.53
2018-12-15T20:58:50.518Z,11.43
2018-12-15T21:01:27.766Z,9.50
2018-12-15T21:04:07.649Z,10.53
2018-12-15T21:06:45.514Z,9.80
2018-12-15T21:09:23.632Z,9.93
2018-12-15T21:12:00.855Z,11.90
2018-12-15T21:14:42.821Z,7.57
2018-12-15T21:17:21.042Z,9.50
2018-12-15T21:19:57.487Z,8.13
2018-12-15T21:22:39.302Z,9.63
2018-12-15T21:25:19.601Z,9.40
2018-12-15T21:28:01.717Z,9.60
2018-12-15T21:30:42.697Z,9.10
2018-12-15T21:33:20.063Z,10.53
2018-12-15T21:35:57.766Z,11.20
2018-12-15T21:38:37.327Z,10.83
2018-12-15T21:41:16.365Z,9.80
2018-12-15T21:43:53.966Z,8.50
2018-12-15T21:46:31.580Z,10.50
2018-12-15T21:49:09.228Z,7.13
2018-12-15T21:51:48.956Z,10.03
2018-12-15T21:54:30.619Z,10.70
2018-12-15T21:57:08.565Z,8.80
2018-12-15T21:59:48.879Z,10.53
2018-12-15T22:02:25.986Z,10.67
2018-12-15T22:05:05.389Z,10.23
2018-12-15T22:07:43.839Z,10.97
2018-12-15T22:10:23.097Z,10.50
2018-12-15T22:12:59.840Z,6.40
2018-12-15T22:15:39.591Z,10.10
2018-12-15T22:18:16.988Z,8.53
2018-12-15T22:20:56.602Z,8.07
2018-12-15T22:23:35.496Z,9.13
2018-12-15T22:26:08.412Z,9.77
2018-12-15T22:28:49.630Z,10.00
2018-12-15T22:31:28.418Z,10.97
2018-12-15T22:34:05.677Z,8.80
2018-12-15T22:36:37.947Z,6.30
2018-12-15T22:39:10.078Z,9.47
2018-12-15T22:41:42.207Z,9.77
2018-12-15T22:44:14.486Z,9.37
2018-12-15T22:46:46.237Z,9.37
2018-12-15T22:49:23.478Z,10.10
2018-12-15T22:52:00.892Z,10.43
2018-12-15T22:54:32.960Z,8.70
2018-12-15T22:57:14.653Z,9.97
2018-12-15T22:59:51.183Z,9.53
2018-12-15T23:02:23.617Z,9.67
2018-12-15T23:05:00.412Z,9.93
2018-12-15T23:07:32.800Z,9.77
2018-12-15T23:10:05.598Z,9.13
2018-12-15T23:12:37.384Z,8.90
2018-12-15T23:15:09.504Z,9.67
2018-12-15T23:17:41.379Z,9.30
2018-12-15T23:20:13.484Z,9.53
2018-12-15T23:22:50.739Z,8.63
2018-12-15T23:25:27.866Z,10.30
2018-12-15T23:28:00.025Z,8.67
2018-12-15T23:30:36.331Z,9.20
2018-12-15T23:33:08.451Z,8.07
2018-12-15T23:35:45.514Z,9.33
2018-12-15T23:38:17.803Z,8.67
2018-12-15T23:40:54.169Z,8.60
2018-12-15T23:43:26.375Z,9.43
2018-12-15T23:46:02.663Z,10.13
2018-12-15T23:48:41.945Z,8.80
2018-12-15T23:51:11.711Z,8.00
2018-12-15T23:53:44.490Z,8.30
2018-12-15T23:56:16.394Z,8.87
2018-12-15T23:58:55.346Z,9.93
